createdAt,value
2023-03-18T00:01:28.320Z,6.85
2023-03-18T00:03:59.750Z,6.73
2023-03-18T00:06:27.174Z,6.58
2023-03-18T00:08:53.806Z,6.65
2023-03-18T00:11:21.627Z,6.58
2023-03-18T00:13:50.759Z,6.28
2023-03-18T00:16:21.294Z,6.17
2023-03-18T00:18:50.010Z,6.23
2023-03-18T00:21:19.101Z,6.28
2023-03-18T00:23:46.432Z,6.28
2023-03-18T00:26:12.999Z,6.35
2023-03-18T00:28:41.451Z,6.30
2023-03-18T00:31:11.619Z,6.32
2023-03-18T00:33:43.716Z,6.31
2023-03-18T00:36:10.673Z,6.34
2023-03-18T00:38:37.355Z,6.35
2023-03-18T00:41:16.441Z,6.33
2023-03-18T00:43:47.310Z,6.35
2023-03-18T00:46:16.385Z,6.33
2023-03-18T00:48:45.325Z,6.32
2023-03-18T00:51:17.334Z,6.33
2023-03-18T00:53:47.452Z,6.28
2023-03-18T00:56:14.804Z,6.15
2023-03-18T00:58:41.853Z,6.12
2023-03-18T01:01:08.888Z,6.01
2023-03-18T01:03:38.078Z,5.89
2023-03-18T01:06:04.872Z,5.86
2023-03-18T01:08:33.849Z,5.81
2023-03-18T01:11:00.499Z,5.78
2023-03-18T01:13:27.067Z,5.66
2023-03-18T01:15:56.787Z,5.58
2023-03-18T01:18:23.803Z,5.57
2023-03-18T01:20:50.619Z,5.53
2023-03-18T01:23:22.772Z,5.56
2023-03-18T01:25:49.369Z,5.61
2023-03-18T01:28:23.335Z,5.42
2023-03-18T01:30:53.198Z,5.41
2023-03-18T01:33:22.252Z,5.45
2023-03-18T01:35:54.600Z,5.52
2023-03-18T01:38:24.148Z,5.52
2023-03-18T01:40:51.276Z,5.56
2023-03-18T01:43:23.947Z,5.56
2023-03-18T01:45:53.614Z,5.45
2023-03-18T01:48:21.163Z,5.49
2023-03-18T01:50:51.712Z,5.44
2023-03-18T01:53:21.649Z,5.46
2023-03-18T01:55:53.739Z,5.43
2023-03-18T01:58:29.353Z,5.46
2023-03-18T02:01:00.968Z,5.40
2023-03-18T02:03:34.431Z,5.37
2023-03-18T02:06:04.916Z,5.22
2023-03-18T02:08:31.488Z,5.33
2023-03-18T02:11:00.200Z,5.37
2023-03-18T02:13:31.798Z,5.38
2023-03-18T02:16:24.220Z,5.42
2023-03-18T02:18:52.249Z,5.42
2023-03-18T02:21:39.716Z,5.42
2023-03-18T02:24:06.367Z,5.39
2023-03-18T02:26:55.921Z,5.33
2023-03-18T02:29:29.573Z,5.32
2023-03-18T02:32:10.978Z,5.29
2023-03-18T02:34:40.864Z,5.11
2023-03-18T02:37:13.175Z,5.00
2023-03-18T02:39:44.625Z,5.00
2023-03-18T02:42:15.248Z,5.00
2023-03-18T02:44:49.052Z,4.93
2023-03-18T02:47:38.888Z,4.88
2023-03-18T02:50:05.612Z,4.79
2023-03-18T02:52:39.003Z,4.72
2023-03-18T02:55:07.218Z,4.78
2023-03-18T02:57:38.050Z,4.79
2023-03-18T03:00:09.320Z,4.87
2023-03-18T03:02:38.860Z,4.88
2023-03-18T03:05:09.424Z,4.84
2023-03-18T03:07:39.198Z,4.78
2023-03-18T03:10:08.848Z,4.81
2023-03-18T03:12:38.145Z,4.79
2023-03-18T03:15:10.896Z,4.79
2023-03-18T03:17:46.343Z,4.81
2023-03-18T03:20:13.954Z,4.82
2023-03-18T03:22:40.592Z,4.81
2023-03-18T03:25:09.801Z,4.82
2023-03-18T03:27:38.090Z,4.82
2023-03-18T03:30:10.422Z,4.83
2023-03-18T03:32:37.214Z,4.84
2023-03-18T03:35:05.473Z,4.82
2023-03-18T03:37:32.051Z,4.75
2023-03-18T03:40:00.096Z,4.67
2023-03-18T03:42:34.715Z,4.69
2023-03-18T03:45:04.128Z,4.64
2023-03-18T03:47:37.892Z,4.62
2023-03-18T03:50:06.453Z,4.63
2023-03-18T03:52:33.562Z,4.59
2023-03-18T03:55:02.837Z,4.63
2023-03-18T03:57:31.955Z,4.60
2023-03-18T03:59:58.627Z,4.60
2023-03-18T04:02:44.963Z,4.65
2023-03-18T04:05:16.998Z,4.65
2023-03-18T04:07:44.030Z,4.55
2023-03-18T04:10:12.118Z,4.51
2023-03-18T04:12:41.226Z,4.54
2023-03-18T04:15:08.270Z,4.49
2023-03-18T04:17:35.977Z,4.26
2023-03-18T04:20:05.363Z,4.21
2023-03-18T04:22:33.208Z,4.23
2023-03-18T04:25:05.065Z,4.12
2023-03-18T04:27:34.475Z,4.16
2023-03-18T04:30:08.819Z,4.21
2023-03-18T04:32:50.061Z,4.26
2023-03-18T04:35:17.294Z,4.30
2023-03-18T04:37:46.805Z,4.26
2023-03-18T04:40:15.924Z,4.36
2023-03-18T04:42:43.252Z,4.33
2023-03-18T04:45:10.819Z,4.29
2023-03-18T04:47:38.843Z,4.32
2023-03-18T04:50:06.270Z,4.27
2023-03-18T04:52:33.697Z,4.25
2023-03-18T04:55:00.821Z,4.36
2023-03-18T04:57:28.785Z,4.41
2023-03-18T04:59:57.110Z,4.39
2023-03-18T05:02:25.464Z,4.37
2023-03-18T05:04:52.478Z,4.28
2023-03-18T05:07:20.537Z,4.25
2023-03-18T05:09:57.753Z,4.34
2023-03-18T05:12:27.820Z,4.37
2023-03-18T05:14:54.551Z,4.36
2023-03-18T05:17:24.576Z,4.47
2023-03-18T05:19:58.146Z,4.46
2023-03-18T05:22:25.069Z,4.42
2023-03-18T05:24:58.787Z,4.40
2023-03-18T05:27:28.633Z,4.24
2023-03-18T05:30:08.749Z,4.15
2023-03-18T05:32:42.791Z,4.21
2023-03-18T05:35:11.073Z,4.25
2023-03-18T05:37:52.407Z,4.34
2023-03-18T05:40:20.505Z,4.54
2023-03-18T05:43:03.319Z,4.64
2023-03-18T05:45:41.412Z,4.68
2023-03-18T05:48:11.804Z,4.56
2023-03-18T05:50:50.683Z,4.55
2023-03-18T05:53:21.441Z,4.45
2023-03-18T05:55:53.600Z,4.36
2023-03-18T05:58:21.348Z,4.46
2023-03-18T06:00:56.455Z,4.36
2023-03-18T06:03:27.033Z,4.48
2023-03-18T06:05:55.068Z,4.44
2023-03-18T06:08:23.174Z,4.59
2023-03-18T06:10:50.019Z,4.63
2023-03-18T06:13:16.810Z,4.69
2023-03-18T06:15:48.747Z,4.78
2023-03-18T06:18:20.758Z,4.95
2023-03-18T06:20:49.974Z,4.94
2023-03-18T06:23:22.630Z,5.00
2023-03-18T06:25:52.692Z,4.97
2023-03-18T06:28:26.530Z,4.94
2023-03-18T06:30:57.781Z,5.02
2023-03-18T06:33:25.872Z,5.10
2023-03-18T06:35:56.582Z,5.09
2023-03-18T06:38:27.291Z,5.15
2023-03-18T06:40:56.980Z,5.24
2023-03-18T06:43:23.903Z,5.30
2023-03-18T06:45:52.709Z,5.34
2023-03-18T06:48:22.556Z,5.41
2023-03-18T06:50:51.233Z,5.53
2023-03-18T06:53:23.030Z,5.65
2023-03-18T06:55:54.026Z,5.75
2023-03-18T06:58:24.855Z,5.88
2023-03-18T07:01:03.020Z,5.84
2023-03-18T07:03:35.908Z,5.99
2023-03-18T07:06:09.560Z,6.14
2023-03-18T07:08:38.085Z,6.23
2023-03-18T07:11:08.168Z,6.39
2023-03-18T07:13:39.928Z,6.62
2023-03-18T07:16:14.035Z,6.81
2023-03-18T07:18:40.878Z,6.83
2023-03-18T07:21:11.253Z,6.83
2023-03-18T07:23:41.160Z,6.83
2023-03-18T07:26:11.334Z,6.99
2023-03-18T07:28:40.940Z,7.14
2023-03-18T07:31:12.952Z,7.33
2023-03-18T07:33:41.953Z,7.29
2023-03-18T07:36:10.896Z,7.31
2023-03-18T07:38:37.553Z,7.43
2023-03-18T07:41:07.449Z,7.71
2023-03-18T07:43:35.185Z,7.77
2023-03-18T07:46:01.935Z,8.06
2023-03-18T07:48:28.655Z,8.18
2023-03-18T07:50:59.814Z,8.25
2023-03-18T07:53:27.740Z,8.22
2023-03-18T07:55:57.492Z,8.27
2023-03-18T07:58:24.650Z,8.30
2023-03-18T08:00:55.982Z,8.37
2023-03-18T08:03:22.714Z,8.49
2023-03-18T08:05:49.906Z,8.58
2023-03-18T08:08:18.878Z,8.59
2023-03-18T08:10:51.423Z,8.65
2023-03-18T08:13:21.026Z,8.75
2023-03-18T08:15:48.741Z,8.78
2023-03-18T08:18:18.052Z,9.05
2023-03-18T08:20:45.089Z,9.05
2023-03-18T08:23:13.424Z,9.24
2023-03-18T08:25:44.772Z,9.54
2023-03-18T08:28:16.634Z,9.50
2023-03-18T08:30:43.501Z,9.65
2023-03-18T08:33:10.489Z,9.78
2023-03-18T08:35:37.162Z,9.85
2023-03-18T08:38:04.259Z,10.05
2023-03-18T08:40:34.921Z,10.01
2023-03-18T08:43:04.464Z,10.07
2023-03-18T08:45:34.057Z,9.95
2023-03-18T08:48:00.872Z,9.87
2023-03-18T08:50:30.045Z,9.78
2023-03-18T08:53:00.685Z,9.95
2023-03-18T08:55:35.147Z,10.35
2023-03-18T08:58:02.075Z,10.68
2023-03-18T09:00:33.145Z,11.00
2023-03-18T09:02:59.888Z,11.29
2023-03-18T09:05:26.805Z,11.40
2023-03-18T09:07:55.738Z,11.32
2023-03-18T09:10:22.502Z,11.48
2023-03-18T09:12:52.823Z,11.70
2023-03-18T09:15:24.785Z,11.92
2023-03-18T09:18:10.010Z,12.01
2023-03-18T09:20:39.052Z,12.06
2023-03-18T09:23:08.954Z,12.06
2023-03-18T09:25:35.567Z,11.57
2023-03-18T09:28:03.376Z,11.43
2023-03-18T09:30:32.639Z,11.35
2023-03-18T09:33:07.785Z,11.71
2023-03-18T09:35:35.770Z,12.18
2023-03-18T09:38:02.667Z,12.42
2023-03-18T09:40:33.159Z,12.70
2023-03-18T09:43:02.531Z,12.85
2023-03-18T09:45:34.536Z,13.11
2023-03-18T09:48:07.462Z,13.32
2023-03-18T09:50:42.558Z,13.55
2023-03-18T09:53:32.739Z,13.72
2023-03-18T09:56:01.881Z,13.96
2023-03-18T09:58:28.724Z,13.87
2023-03-18T10:01:06.557Z,13.89
2023-03-18T10:03:45.030Z,13.97
2023-03-18T10:06:18.092Z,14.22
2023-03-18T10:08:57.507Z,13.96
2023-03-18T10:11:35.857Z,13.89
2023-03-18T10:14:08.894Z,14.16
2023-03-18T10:16:47.143Z,14.44
2023-03-18T10:19:19.356Z,14.65
2023-03-18T10:22:01.496Z,14.90
2023-03-18T10:24:34.143Z,15.01
2023-03-18T10:27:15.784Z,15.01
2023-03-18T10:30:01.801Z,15.03
2023-03-18T10:32:48.567Z,15.26
2023-03-18T10:35:19.009Z,15.20
2023-03-18T10:37:52.096Z,15.36
2023-03-18T10:40:22.338Z,15.11
2023-03-18T10:42:51.837Z,15.01
2023-03-18T10:45:25.472Z,14.79
2023-03-18T10:48:08.991Z,15.15
2023-03-18T10:51:04.984Z,15.28
2023-03-18T10:53:36.802Z,15.60
2023-03-18T10:56:07.781Z,15.98
2023-03-18T10:58:34.531Z,16.38
2023-03-18T11:01:04.844Z,16.71
2023-03-18T11:03:43.708Z,17.00
2023-03-18T11:06:16.517Z,16.74
2023-03-18T11:08:47.426Z,16.24
2023-03-18T11:11:21.761Z,16.63
2023-03-18T11:13:55.912Z,17.00
2023-03-18T11:16:24.190Z,16.94
2023-03-18T11:18:57.538Z,16.74
2023-03-18T11:21:26.209Z,16.52
2023-03-18T11:24:10.910Z,16.39
2023-03-18T11:26:48.115Z,16.76
2023-03-18T11:29:22.342Z,16.73
2023-03-18T11:31:58.587Z,16.79
2023-03-18T11:34:28.250Z,17.23
2023-03-18T11:37:07.430Z,17.42
2023-03-18T11:39:41.492Z,18.00
2023-03-18T11:42:18.981Z,18.34
2023-03-18T11:44:50.208Z,18.62
2023-03-18T11:47:22.570Z,18.67
2023-03-18T11:49:54.600Z,18.24
2023-03-18T11:52:24.335Z,18.30
2023-03-18T11:55:14.268Z,18.56
2023-03-18T11:58:00.354Z,18.97
2023-03-18T12:00:27.521Z,19.02
2023-03-18T12:03:23.070Z,19.27
2023-03-18T12:06:05.485Z,19.78
2023-03-18T12:08:35.353Z,20.02
2023-03-18T12:11:20.421Z,20.20
2023-03-18T12:13:56.837Z,20.28
2023-03-18T12:16:42.921Z,20.56
2023-03-18T12:19:14.933Z,20.52
2023-03-18T12:22:00.497Z,20.49
2023-03-18T12:24:30.448Z,20.64
2023-03-18T12:27:09.857Z,20.60
2023-03-18T12:29:41.037Z,20.80
2023-03-18T12:32:07.998Z,21.15
2023-03-18T12:34:42.400Z,20.74
2023-03-18T12:37:17.222Z,21.06
2023-03-18T12:40:12.727Z,20.87
2023-03-18T12:42:47.877Z,20.50
2023-03-18T12:45:17.238Z,21.17
2023-03-18T12:47:45.051Z,21.62
2023-03-18T12:50:15.320Z,21.71
2023-03-18T12:52:49.308Z,21.77
2023-03-18T12:55:23.603Z,21.88
2023-03-18T12:57:56.267Z,22.06
2023-03-18T13:00:37.880Z,21.98
2023-03-18T13:03:24.676Z,22.41
2023-03-18T13:05:59.977Z,22.67
2023-03-18T13:08:45.657Z,23.12
2023-03-18T13:11:38.721Z,23.46
2023-03-18T13:14:07.533Z,23.27
2023-03-18T13:16:35.005Z,23.05
2023-03-18T13:19:03.487Z,22.59
2023-03-18T13:21:31.597Z,22.40
2023-03-18T13:24:04.353Z,22.56
2023-03-18T13:26:33.210Z,22.36
2023-03-18T13:29:19.085Z,22.63
2023-03-18T13:31:57.302Z,23.05
2023-03-18T13:34:34.078Z,23.74
2023-03-18T13:37:00.988Z,23.71
2023-03-18T13:39:46.645Z,23.55
2023-03-18T13:42:17.021Z,23.70
2023-03-18T13:44:47.319Z,24.29
2023-03-18T13:47:20.156Z,24.40
2023-03-18T13:49:47.073Z,24.33
2023-03-18T13:52:26.000Z,23.80
2023-03-18T13:54:55.061Z,23.55
2023-03-18T13:57:24.942Z,23.36
2023-03-18T13:59:51.633Z,23.14
2023-03-18T14:02:31.565Z,22.71
2023-03-18T14:04:59.672Z,22.06
2023-03-18T14:07:26.389Z,21.68
2023-03-18T14:10:17.927Z,21.24
2023-03-18T14:12:50.661Z,21.00
2023-03-18T14:15:26.594Z,21.48
2023-03-18T14:17:58.214Z,22.35
2023-03-18T14:20:26.128Z,23.57
2023-03-18T14:22:59.735Z,24.92
2023-03-18T14:25:42.373Z,25.53
2023-03-18T14:28:11.278Z,25.68
2023-03-18T14:30:43.020Z,25.32
2023-03-18T14:33:19.160Z,24.88
2023-03-18T14:35:48.827Z,24.33
2023-03-18T14:38:18.460Z,24.26
2023-03-18T14:40:48.809Z,23.84
2023-03-18T14:43:19.321Z,23.33
2023-03-18T14:45:51.281Z,23.10
2023-03-18T14:48:21.791Z,23.45
2023-03-18T14:50:52.208Z,23.80
2023-03-18T14:53:20.840Z,23.90
2023-03-18T14:55:48.200Z,24.31
2023-03-18T14:58:19.007Z,24.84
2023-03-18T15:00:46.668Z,25.34
2023-03-18T15:03:20.090Z,25.64
2023-03-18T15:05:46.692Z,25.39
2023-03-18T15:08:17.907Z,25.31
2023-03-18T15:10:49.778Z,25.42
2023-03-18T15:13:18.036Z,25.67
2023-03-18T15:15:44.686Z,25.41
2023-03-18T15:18:17.699Z,24.95
2023-03-18T15:20:51.219Z,25.08
2023-03-18T15:23:21.796Z,24.80
2023-03-18T15:25:49.328Z,24.43
2023-03-18T15:28:19.041Z,24.16
2023-03-18T15:30:54.311Z,24.19
2023-03-18T15:33:22.800Z,23.81
2023-03-18T15:36:03.487Z,23.76
2023-03-18T15:38:31.089Z,23.20
2023-03-18T15:41:00.062Z,22.71
2023-03-18T15:43:46.016Z,22.41
2023-03-18T15:46:27.227Z,22.09
2023-03-18T15:48:56.925Z,21.55
2023-03-18T15:51:35.458Z,21.11
2023-03-18T15:54:09.279Z,20.94
2023-03-18T15:56:38.135Z,20.91
2023-03-18T15:59:15.961Z,21.04
2023-03-18T16:01:42.693Z,21.39
2023-03-18T16:04:12.852Z,21.22
2023-03-18T16:06:40.541Z,21.31
2023-03-18T16:09:25.399Z,20.81
2023-03-18T16:11:52.093Z,20.72
2023-03-18T16:14:19.423Z,21.02
2023-03-18T16:16:46.316Z,21.41
2023-03-18T16:19:19.348Z,20.85
2023-03-18T16:21:45.967Z,20.84
2023-03-18T16:24:12.554Z,20.72
2023-03-18T16:26:39.706Z,21.00
2023-03-18T16:29:12.319Z,20.83
2023-03-18T16:31:41.552Z,20.92
2023-03-18T16:34:15.246Z,20.48
2023-03-18T16:36:42.550Z,19.57
2023-03-18T16:39:19.147Z,19.00
2023-03-18T16:41:46.090Z,18.53
2023-03-18T16:44:21.223Z,18.19
2023-03-18T16:46:52.399Z,17.79
2023-03-18T16:49:31.918Z,17.57
2023-03-18T16:52:01.843Z,17.29
2023-03-18T16:54:29.463Z,17.01
2023-03-18T16:56:58.082Z,16.79
2023-03-18T16:59:33.793Z,16.52
2023-03-18T17:02:04.321Z,16.44
2023-03-18T17:04:34.330Z,16.35
2023-03-18T17:07:01.860Z,16.02
2023-03-18T17:09:28.588Z,15.94
2023-03-18T17:11:59.270Z,15.69
2023-03-18T17:14:30.645Z,15.60
2023-03-18T17:16:58.137Z,15.51
2023-03-18T17:19:25.790Z,15.49
2023-03-18T17:21:57.011Z,15.38
2023-03-18T17:24:23.728Z,15.29
2023-03-18T17:26:50.815Z,15.33
2023-03-18T17:29:24.483Z,15.26
2023-03-18T17:31:56.562Z,15.21
2023-03-18T17:34:24.124Z,15.17
2023-03-18T17:36:50.810Z,15.12
2023-03-18T17:39:17.689Z,15.00
2023-03-18T17:41:44.308Z,14.89
2023-03-18T17:44:24.021Z,14.79
2023-03-18T17:46:56.094Z,14.65
2023-03-18T17:49:27.076Z,14.55
2023-03-18T17:51:54.283Z,14.52
2023-03-18T17:54:24.360Z,14.49
2023-03-18T17:56:53.567Z,14.29
2023-03-18T17:59:20.495Z,14.13
2023-03-18T18:01:47.902Z,14.05
2023-03-18T18:04:20.846Z,13.99
2023-03-18T18:06:49.727Z,13.88
2023-03-18T18:09:16.559Z,13.89
2023-03-18T18:11:46.955Z,13.78
2023-03-18T18:14:13.565Z,13.69
2023-03-18T18:16:40.785Z,13.59
2023-03-18T18:19:08.817Z,13.48
2023-03-18T18:21:35.490Z,13.38
2023-03-18T18:24:02.969Z,13.30
2023-03-18T18:26:32.035Z,13.11
2023-03-18T18:28:58.712Z,13.01
2023-03-18T18:31:27.633Z,13.00
2023-03-18T18:33:56.814Z,12.90
2023-03-18T18:36:28.176Z,12.84
2023-03-18T18:38:55.082Z,12.70
2023-03-18T18:41:21.790Z,12.64
2023-03-18T18:43:48.385Z,12.58
2023-03-18T18:46:15.323Z,12.51
2023-03-18T18:48:45.082Z,12.39
2023-03-18T18:51:18.477Z,12.38
2023-03-18T18:53:47.531Z,12.36
2023-03-18T18:56:20.849Z,12.27
2023-03-18T18:58:47.792Z,12.23
2023-03-18T19:01:15.176Z,12.21
2023-03-18T19:03:42.048Z,12.21
2023-03-18T19:06:18.886Z,12.21
2023-03-18T19:08:45.502Z,12.09
2023-03-18T19:11:12.250Z,12.05
2023-03-18T19:13:42.088Z,12.06
2023-03-18T19:16:35.133Z,11.97
2023-03-18T19:19:03.106Z,11.90
2023-03-18T19:21:32.670Z,11.83
2023-03-18T19:23:59.263Z,11.73
2023-03-18T19:26:25.976Z,11.72
2023-03-18T19:28:58.979Z,11.72
2023-03-18T19:31:30.818Z,11.71
2023-03-18T19:33:59.109Z,11.70
2023-03-18T19:36:37.283Z,11.70
2023-03-18T19:39:04.525Z,11.67
2023-03-18T19:41:31.260Z,11.67
2023-03-18T19:43:58.609Z,11.61
2023-03-18T19:46:31.591Z,11.56
2023-03-18T19:49:00.978Z,11.48
2023-03-18T19:51:27.724Z,11.41
2023-03-18T19:53:56.988Z,11.38
2023-03-18T19:56:24.742Z,11.38
2023-03-18T19:58:54.883Z,11.39
2023-03-18T20:01:22.178Z,11.38
2023-03-18T20:03:52.344Z,11.38
2023-03-18T20:06:19.030Z,11.35
2023-03-18T20:08:45.928Z,11.35
2023-03-18T20:11:15.594Z,11.35
2023-03-18T20:13:42.513Z,11.32
2023-03-18T20:16:13.103Z,11.25
2023-03-18T20:18:39.919Z,11.21
2023-03-18T20:21:06.810Z,11.17
2023-03-18T20:23:33.380Z,11.06
2023-03-18T20:25:59.998Z,11.02
2023-03-18T20:28:29.812Z,10.94
2023-03-18T20:31:01.863Z,10.89
2023-03-18T20:33:28.607Z,10.88
2023-03-18T20:35:57.671Z,10.89
2023-03-18T20:38:33.535Z,10.79
2023-03-18T20:41:00.510Z,10.72
2023-03-18T20:43:28.396Z,10.70
2023-03-18T20:45:56.156Z,10.69
2023-03-18T20:48:22.916Z,10.66
2023-03-18T20:50:52.018Z,10.61
2023-03-18T20:53:20.153Z,10.57
2023-03-18T20:55:49.728Z,10.56
2023-03-18T20:58:20.443Z,10.60
2023-03-18T21:00:47.325Z,10.61
2023-03-18T21:03:24.562Z,10.63
2023-03-18T21:05:56.746Z,10.59
2023-03-18T21:08:23.806Z,10.52
2023-03-18T21:10:51.157Z,10.46
2023-03-18T21:13:33.790Z,10.41
2023-03-18T21:16:06.415Z,10.23
2023-03-18T21:18:33.361Z,10.16
2023-03-18T21:21:01.127Z,10.09
2023-03-18T21:23:32.709Z,10.00
2023-03-18T21:26:02.064Z,9.94
2023-03-18T21:28:29.074Z,9.81
2023-03-18T21:31:01.136Z,9.70
2023-03-18T21:33:28.954Z,9.73
2023-03-18T21:36:01.270Z,9.77
2023-03-18T21:38:31.738Z,9.79
2023-03-18T21:40:58.983Z,9.82
2023-03-18T21:43:40.449Z,9.77
2023-03-18T21:46:09.673Z,9.81
2023-03-18T21:48:39.009Z,9.84
2023-03-18T21:51:08.702Z,9.83
2023-03-18T21:53:35.320Z,9.80
2023-03-18T21:56:01.906Z,9.79
2023-03-18T21:58:30.835Z,9.79
2023-03-18T22:00:58.305Z,9.72
2023-03-18T22:03:25.823Z,9.80
2023-03-18T22:05:52.794Z,9.85
2023-03-18T22:08:19.809Z,9.85
2023-03-18T22:10:46.979Z,9.82
2023-03-18T22:13:23.659Z,9.75
2023-03-18T22:15:53.671Z,9.72
2023-03-18T22:18:25.101Z,9.70
2023-03-18T22:20:54.446Z,9.66
2023-03-18T22:23:27.288Z,9.65
2023-03-18T22:25:56.699Z,9.60
2023-03-18T22:28:24.208Z,9.54
2023-03-18T22:30:52.145Z,9.50
2023-03-18T22:33:22.180Z,9.50
2023-03-18T22:35:49.119Z,9.50
2023-03-18T22:38:16.917Z,9.37
2023-03-18T22:40:43.860Z,9.27
2023-03-18T22:43:36.814Z,9.22
2023-03-18T22:46:09.299Z,9.16
2023-03-18T22:48:35.937Z,9.19
2023-03-18T22:51:02.574Z,9.17
2023-03-18T22:53:32.905Z,9.15
2023-03-18T22:56:01.411Z,9.05
2023-03-18T22:58:28.188Z,8.93
2023-03-18T23:00:55.236Z,8.94
2023-03-18T23:03:23.017Z,8.92
2023-03-18T23:05:53.309Z,9.00
2023-03-18T23:08:20.458Z,8.99
2023-03-18T23:10:48.005Z,9.03
2023-03-18T23:13:18.188Z,9.03
2023-03-18T23:15:52.580Z,9.01
2023-03-18T23:18:19.271Z,8.97
2023-03-18T23:20:51.252Z,8.96
2023-03-18T23:23:18.256Z,8.91
2023-03-18T23:25:45.410Z,8.93
2023-03-18T23:28:12.286Z,8.84
2023-03-18T23:30:42.354Z,8.87
2023-03-18T23:33:12.366Z,8.88
2023-03-18T23:35:41.946Z,8.84
2023-03-18T23:38:11.280Z,8.81
2023-03-18T23:40:40.652Z,8.76
2023-03-18T23:43:09.980Z,8.71
2023-03-18T23:45:37.347Z,8.68
2023-03-18T23:48:04.906Z,8.65
2023-03-18T23:50:34.297Z,8.66
2023-03-18T23:53:03.392Z,8.66
2023-03-18T23:55:35.164Z,8.62
2023-03-18T23:58:03.162Z,8.57
